sensor_id;sensor_type;location;lat;lon;timestamp;temperature;humidity
51950;DHT22;37974;53.218;6.640;2022-10-16T00:00:44;12.30;99.90
51950;DHT22;37974;53.218;6.640;2022-10-16T00:03:10;12.40;99.90
51950;DHT22;37974;53.218;6.640;2022-10-16T00:05:40;12.30;99.90
51950;DHT22;37974;53.218;6.640;2022-10-16T00:08:06;12.40;99.90
51950;DHT22;37974;53.218;6.640;2022-10-16T00:10:32;12.40;99.90
51950;DHT22;37974;53.218;6.640;2022-10-16T00:12:58;12.50;99.90
51950;DHT22;37974;53.218;6.640;2022-10-16T00:15:24;12.40;99.90
51950;DHT22;37974;53.218;6.640;2022-10-16T00:17:50;12.40;99.90
51950;DHT22;37974;53.218;6.640;2022-10-16T00:20:15;12.30;99.90
51950;DHT22;37974;53.218;6.640;2022-10-16T00:22:41;12.30;99.90
51950;DHT22;37974;53.218;6.640;2022-10-16T00:25:07;12.30;99.90
51950;DHT22;37974;53.218;6.640;2022-10-16T00:27:33;12.30;99.90
51950;DHT22;37974;53.218;6.640;2022-10-16T00:29:59;12.40;99.90
51950;DHT22;37974;53.218;6.640;2022-10-16T00:32:25;12.40;99.90
51950;DHT22;37974;53.218;6.640;2022-10-16T00:34:50;12.30;99.90
51950;DHT22;37974;53.218;6.640;2022-10-16T00:37:16;12.30;99.90
51950;DHT22;37974;53.218;6.640;2022-10-16T00:39:42;12.20;99.90
51950;DHT22;37974;53.218;6.640;2022-10-16T00:42:14;12.20;99.90
51950;DHT22;37974;53.218;6.640;2022-10-16T00:44:48;12.20;99.90
51950;DHT22;37974;53.218;6.640;2022-10-16T00:47:24;12.30;99.90
51950;DHT22;37974;53.218;6.640;2022-10-16T00:49:55;12.30;99.90
51950;DHT22;37974;53.218;6.640;2022-10-16T00:52:22;12.20;99.90
51950;DHT22;37974;53.218;6.640;2022-10-16T00:54:49;12.20;99.90
51950;DHT22;37974;53.218;6.640;2022-10-16T00:57:16;12.30;99.90
51950;DHT22;37974;53.218;6.640;2022-10-16T00:59:42;12.20;99.90
51950;DHT22;37974;53.218;6.640;2022-10-16T01:02:11;12.20;99.90
51950;DHT22;37974;53.218;6.640;2022-10-16T01:04:41;12.10;99.90
51950;DHT22;37974;53.218;6.640;2022-10-16T01:07:20;12.20;99.90
51950;DHT22;37974;53.218;6.640;2022-10-16T01:12:43;12.10;99.90
51950;DHT22;37974;53.218;6.640;2022-10-16T01:15:17;12.20;99.90
51950;DHT22;37974;53.218;6.640;2022-10-16T01:28:36;12.10;99.90
51950;DHT22;37974;53.218;6.640;2022-10-16T01:31:05;12.20;99.90
51950;DHT22;37974;53.218;6.640;2022-10-16T01:33:42;12.10;99.90
51950;DHT22;37974;53.218;6.640;2022-10-16T01:36:13;12.10;99.90
51950;DHT22;37974;53.218;6.640;2022-10-16T01:38:42;12.20;99.90
51950;DHT22;37974;53.218;6.640;2022-10-16T01:41:15;12.10;99.90
51950;DHT22;37974;53.218;6.640;2022-10-16T01:43:49;12.20;99.90
51950;DHT22;37974;53.218;6.640;2022-10-16T01:46:18;12.30;99.90
51950;DHT22;37974;53.218;6.640;2022-10-16T01:48:46;12.20;99.90
51950;DHT22;37974;53.218;6.640;2022-10-16T01:51:13;12.30;99.90
51950;DHT22;37974;53.218;6.640;2022-10-16T01:53:42;12.20;99.90
51950;DHT22;37974;53.218;6.640;2022-10-16T01:56:12;12.30;99.90
51950;DHT22;37974;53.218;6.640;2022-10-16T01:58:43;12.40;99.90
51950;DHT22;37974;53.218;6.640;2022-10-16T02:01:11;12.30;99.90
51950;DHT22;37974;53.218;6.640;2022-10-16T02:03:37;12.40;99.90
51950;DHT22;37974;53.218;6.640;2022-10-16T02:06:07;12.40;99.90
51950;DHT22;37974;53.218;6.640;2022-10-16T02:08:32;12.40;99.90
51950;DHT22;37974;53.218;6.640;2022-10-16T02:11:00;12.40;99.90
51950;DHT22;37974;53.218;6.640;2022-10-16T02:13:35;12.40;99.90
51950;DHT22;37974;53.218;6.640;2022-10-16T02:16:02;12.40;99.90
51950;DHT22;37974;53.218;6.640;2022-10-16T02:18:29;12.50;99.90
51950;DHT22;37974;53.218;6.640;2022-10-16T02:21:04;12.50;99.90
51950;DHT22;37974;53.218;6.640;2022-10-16T02:23:40;12.50;99.90
51950;DHT22;37974;53.218;6.640;2022-10-16T02:26:12;12.50;99.90
51950;DHT22;37974;53.218;6.640;2022-10-16T02:28:44;12.60;99.90
51950;DHT22;37974;53.218;6.640;2022-10-16T02:31:14;12.60;99.90
51950;DHT22;37974;53.218;6.640;2022-10-16T02:33:42;12.60;99.90
51950;DHT22;37974;53.218;6.640;2022-10-16T02:36:09;12.60;99.90
51950;DHT22;37974;53.218;6.640;2022-10-16T02:38:36;12.60;99.90
51950;DHT22;37974;53.218;6.640;2022-10-16T02:41:02;12.60;99.90
51950;DHT22;37974;53.218;6.640;2022-10-16T02:43:28;12.60;99.90
51950;DHT22;37974;53.218;6.640;2022-10-16T02:45:55;12.60;99.90
51950;DHT22;37974;53.218;6.640;2022-10-16T02:48:21;12.60;99.90
51950;DHT22;37974;53.218;6.640;2022-10-16T02:50:46;12.60;99.90
51950;DHT22;37974;53.218;6.640;2022-10-16T02:53:12;12.60;99.90
51950;DHT22;37974;53.218;6.640;2022-10-16T02:55:37;12.60;99.90
51950;DHT22;37974;53.218;6.640;2022-10-16T02:58:03;12.60;99.90
51950;DHT22;37974;53.218;6.640;2022-10-16T03:00:29;12.60;99.90
51950;DHT22;37974;53.218;6.640;2022-10-16T03:02:55;12.60;99.90
51950;DHT22;37974;53.218;6.640;2022-10-16T03:05:20;12.60;99.90
51950;DHT22;37974;53.218;6.640;2022-10-16T03:07:46;12.60;99.90
51950;DHT22;37974;53.218;6.640;2022-10-16T03:10:12;12.60;99.90
51950;DHT22;37974;53.218;6.640;2022-10-16T03:12:37;12.60;99.90
51950;DHT22;37974;53.218;6.640;2022-10-16T03:15:04;12.60;99.90
51950;DHT22;37974;53.218;6.640;2022-10-16T03:17:29;12.70;99.90
51950;DHT22;37974;53.218;6.640;2022-10-16T03:19:55;12.70;99.90
51950;DHT22;37974;53.218;6.640;2022-10-16T03:22:21;12.70;99.90
51950;DHT22;37974;53.218;6.640;2022-10-16T03:24:46;12.70;99.90
51950;DHT22;37974;53.218;6.640;2022-10-16T03:27:12;12.70;99.90
51950;DHT22;37974;53.218;6.640;2022-10-16T03:29:37;12.60;99.90
51950;DHT22;37974;53.218;6.640;2022-10-16T03:32:03;12.70;99.90
51950;DHT22;37974;53.218;6.640;2022-10-16T03:34:29;12.70;99.90
51950;DHT22;37974;53.218;6.640;2022-10-16T03:36:54;12.60;99.90
51950;DHT22;37974;53.218;6.640;2022-10-16T03:39:20;12.70;99.90
51950;DHT22;37974;53.218;6.640;2022-10-16T03:41:46;12.60;99.90
51950;DHT22;37974;53.218;6.640;2022-10-16T03:44:12;12.60;99.90
51950;DHT22;37974;53.218;6.640;2022-10-16T03:46:38;12.60;99.90
51950;DHT22;37974;53.218;6.640;2022-10-16T03:49:03;12.60;99.90
51950;DHT22;37974;53.218;6.640;2022-10-16T03:51:29;12.60;99.90
51950;DHT22;37974;53.218;6.640;2022-10-16T03:53:55;12.50;99.90
51950;DHT22;37974;53.218;6.640;2022-10-16T03:56:20;12.50;99.90
51950;DHT22;37974;53.218;6.640;2022-10-16T03:58:46;12.50;99.90
51950;DHT22;37974;53.218;6.640;2022-10-16T04:01:12;12.50;99.90
51950;DHT22;37974;53.218;6.640;2022-10-16T04:03:37;12.60;99.90
51950;DHT22;37974;53.218;6.640;2022-10-16T04:06:03;12.50;99.90
51950;DHT22;37974;53.218;6.640;2022-10-16T04:08:29;12.50;99.90
51950;DHT22;37974;53.218;6.640;2022-10-16T04:10:54;12.50;99.90
51950;DHT22;37974;53.218;6.640;2022-10-16T04:13:20;12.40;99.90
51950;DHT22;37974;53.218;6.640;2022-10-16T04:15:46;12.40;99.90
51950;DHT22;37974;53.218;6.640;2022-10-16T04:18:11;12.40;99.90
51950;DHT22;37974;53.218;6.640;2022-10-16T04:20:37;12.30;99.90
51950;DHT22;37974;53.218;6.640;2022-10-16T04:23:03;12.30;99.90
51950;DHT22;37974;53.218;6.640;2022-10-16T04:25:29;12.30;99.90
51950;DHT22;37974;53.218;6.640;2022-10-16T04:27:55;12.30;99.90
51950;DHT22;37974;53.218;6.640;2022-10-16T04:30:21;12.20;99.90
51950;DHT22;37974;53.218;6.640;2022-10-16T04:32:48;12.20;99.90
51950;DHT22;37974;53.218;6.640;2022-10-16T04:35:16;12.30;99.90
51950;DHT22;37974;53.218;6.640;2022-10-16T04:37:41;12.20;99.90
51950;DHT22;37974;53.218;6.640;2022-10-16T04:40:07;12.20;99.90
51950;DHT22;37974;53.218;6.640;2022-10-16T04:42:33;12.30;99.90
51950;DHT22;37974;53.218;6.640;2022-10-16T04:44:59;12.20;99.90
51950;DHT22;37974;53.218;6.640;2022-10-16T04:47:24;12.30;99.90
51950;DHT22;37974;53.218;6.640;2022-10-16T04:49:50;12.30;99.90
51950;DHT22;37974;53.218;6.640;2022-10-16T04:52:15;12.30;99.90
51950;DHT22;37974;53.218;6.640;2022-10-16T04:54:42;12.30;99.90
51950;DHT22;37974;53.218;6.640;2022-10-16T04:57:07;12.40;99.90
51950;DHT22;37974;53.218;6.640;2022-10-16T04:59:33;12.40;99.90
51950;DHT22;37974;53.218;6.640;2022-10-16T05:01:59;12.40;99.90
51950;DHT22;37974;53.218;6.640;2022-10-16T05:04:24;12.40;99.90
51950;DHT22;37974;53.218;6.640;2022-10-16T05:06:50;12.40;99.90
51950;DHT22;37974;53.218;6.640;2022-10-16T05:09:16;12.50;99.90
51950;DHT22;37974;53.218;6.640;2022-10-16T05:11:41;12.50;99.90
51950;DHT22;37974;53.218;6.640;2022-10-16T05:14:07;12.50;99.90
51950;DHT22;37974;53.218;6.640;2022-10-16T05:16:33;12.60;99.90
51950;DHT22;37974;53.218;6.640;2022-10-16T05:18:58;12.50;99.90
51950;DHT22;37974;53.218;6.640;2022-10-16T05:21:24;12.50;99.90
51950;DHT22;37974;53.218;6.640;2022-10-16T05:23:50;12.50;99.90
51950;DHT22;37974;53.218;6.640;2022-10-16T05:26:15;12.50;99.90
51950;DHT22;37974;53.218;6.640;2022-10-16T05:28:41;12.50;99.90
51950;DHT22;37974;53.218;6.640;2022-10-16T05:31:09;12.50;99.90
51950;DHT22;37974;53.218;6.640;2022-10-16T05:33:35;12.40;99.90
51950;DHT22;37974;53.218;6.640;2022-10-16T05:36:03;12.50;99.90
51950;DHT22;37974;53.218;6.640;2022-10-16T05:38:28;12.50;99.90
51950;DHT22;37974;53.218;6.640;2022-10-16T05:40:54;12.40;99.90
51950;DHT22;37974;53.218;6.640;2022-10-16T05:43:20;12.40;99.90
51950;DHT22;37974;53.218;6.640;2022-10-16T05:45:54;12.40;99.90
51950;DHT22;37974;53.218;6.640;2022-10-16T05:48:20;12.50;99.90
51950;DHT22;37974;53.218;6.640;2022-10-16T05:50:45;12.50;99.90
51950;DHT22;37974;53.218;6.640;2022-10-16T05:53:11;12.50;99.90
51950;DHT22;37974;53.218;6.640;2022-10-16T05:55:37;12.40;99.90
51950;DHT22;37974;53.218;6.640;2022-10-16T05:58:02;12.50;99.90
51950;DHT22;37974;53.218;6.640;2022-10-16T06:00:28;12.40;99.90
51950;DHT22;37974;53.218;6.640;2022-10-16T06:02:54;12.40;99.90
51950;DHT22;37974;53.218;6.640;2022-10-16T06:05:19;12.50;99.90
51950;DHT22;37974;53.218;6.640;2022-10-16T06:07:45;12.50;99.90
51950;DHT22;37974;53.218;6.640;2022-10-16T06:10:11;12.50;99.90
51950;DHT22;37974;53.218;6.640;2022-10-16T06:12:36;12.50;99.90
51950;DHT22;37974;53.218;6.640;2022-10-16T06:15:02;12.50;99.90
51950;DHT22;37974;53.218;6.640;2022-10-16T06:17:28;12.50;99.90
51950;DHT22;37974;53.218;6.640;2022-10-16T06:19:53;12.50;99.90
51950;DHT22;37974;53.218;6.640;2022-10-16T06:22:19;12.40;99.90
51950;DHT22;37974;53.218;6.640;2022-10-16T06:24:45;12.50;99.90
51950;DHT22;37974;53.218;6.640;2022-10-16T06:27:11;12.50;99.90
51950;DHT22;37974;53.218;6.640;2022-10-16T06:29:37;12.50;99.90
51950;DHT22;37974;53.218;6.640;2022-10-16T06:32:03;12.50;99.90
51950;DHT22;37974;53.218;6.640;2022-10-16T06:34:29;12.60;99.90
51950;DHT22;37974;53.218;6.640;2022-10-16T06:36:54;12.60;99.90
51950;DHT22;37974;53.218;6.640;2022-10-16T06:39:20;12.70;99.90
51950;DHT22;37974;53.218;6.640;2022-10-16T06:41:46;12.70;99.90
51950;DHT22;37974;53.218;6.640;2022-10-16T06:44:12;12.60;99.90
51950;DHT22;37974;53.218;6.640;2022-10-16T06:46:37;12.70;99.90
51950;DHT22;37974;53.218;6.640;2022-10-16T06:49:03;12.70;99.90
51950;DHT22;37974;53.218;6.640;2022-10-16T06:51:29;12.70;99.90
51950;DHT22;37974;53.218;6.640;2022-10-16T06:53:56;12.70;99.90
51950;DHT22;37974;53.218;6.640;2022-10-16T06:56:24;12.80;99.90
51950;DHT22;37974;53.218;6.640;2022-10-16T06:58:51;12.80;99.90
51950;DHT22;37974;53.218;6.640;2022-10-16T07:01:19;12.90;99.90
51950;DHT22;37974;53.218;6.640;2022-10-16T07:03:46;12.90;99.90
51950;DHT22;37974;53.218;6.640;2022-10-16T07:06:15;12.90;99.90
51950;DHT22;37974;53.218;6.640;2022-10-16T07:08:43;13.00;99.90
51950;DHT22;37974;53.218;6.640;2022-10-16T07:11:12;13.00;99.90
51950;DHT22;37974;53.218;6.640;2022-10-16T07:13:40;13.10;99.90
51950;DHT22;37974;53.218;6.640;2022-10-16T07:16:08;13.00;99.90
51950;DHT22;37974;53.218;6.640;2022-10-16T07:18:34;13.10;99.90
51950;DHT22;37974;53.218;6.640;2022-10-16T07:21:10;13.00;99.90
51950;DHT22;37974;53.218;6.640;2022-10-16T07:23:36;13.00;99.90
51950;DHT22;37974;53.218;6.640;2022-10-16T07:26:03;13.10;99.90
51950;DHT22;37974;53.218;6.640;2022-10-16T07:28:29;13.10;99.90
51950;DHT22;37974;53.218;6.640;2022-10-16T07:30:54;13.10;99.90
51950;DHT22;37974;53.218;6.640;2022-10-16T07:33:21;13.10;99.90
51950;DHT22;37974;53.218;6.640;2022-10-16T07:35:50;13.10;99.90
51950;DHT22;37974;53.218;6.640;2022-10-16T07:38:17;13.20;99.90
51950;DHT22;37974;53.218;6.640;2022-10-16T07:40:44;13.10;99.90
51950;DHT22;37974;53.218;6.640;2022-10-16T07:43:10;13.20;99.90
51950;DHT22;37974;53.218;6.640;2022-10-16T07:45:35;13.20;99.90
51950;DHT22;37974;53.218;6.640;2022-10-16T07:48:01;13.20;99.90
51950;DHT22;37974;53.218;6.640;2022-10-16T07:50:27;13.30;99.90
51950;DHT22;37974;53.218;6.640;2022-10-16T07:52:53;13.20;99.90
51950;DHT22;37974;53.218;6.640;2022-10-16T07:55:18;13.30;99.90
51950;DHT22;37974;53.218;6.640;2022-10-16T07:57:44;13.30;99.90
51950;DHT22;37974;53.218;6.640;2022-10-16T08:00:10;13.30;99.90
51950;DHT22;37974;53.218;6.640;2022-10-16T08:02:42;13.40;99.90
51950;DHT22;37974;53.218;6.640;2022-10-16T08:05:08;13.40;99.90
51950;DHT22;37974;53.218;6.640;2022-10-16T08:07:33;13.30;99.90
51950;DHT22;37974;53.218;6.640;2022-10-16T08:09:59;13.40;99.90
51950;DHT22;37974;53.218;6.640;2022-10-16T08:12:26;13.40;99.90
51950;DHT22;37974;53.218;6.640;2022-10-16T08:14:51;13.40;99.90
51950;DHT22;37974;53.218;6.640;2022-10-16T08:17:17;13.40;99.90
51950;DHT22;37974;53.218;6.640;2022-10-16T08:19:45;13.30;99.90
51950;DHT22;37974;53.218;6.640;2022-10-16T08:22:11;13.40;99.90
51950;DHT22;37974;53.218;6.640;2022-10-16T08:24:37;13.50;99.90
51950;DHT22;37974;53.218;6.640;2022-10-16T08:27:03;13.50;99.90
51950;DHT22;37974;53.218;6.640;2022-10-16T08:29:29;13.60;99.90
51950;DHT22;37974;53.218;6.640;2022-10-16T08:31:55;13.60;99.90
51950;DHT22;37974;53.218;6.640;2022-10-16T08:34:20;13.70;99.90
51950;DHT22;37974;53.218;6.640;2022-10-16T08:36:49;13.80;99.90
51950;DHT22;37974;53.218;6.640;2022-10-16T08:39:15;13.90;99.90
51950;DHT22;37974;53.218;6.640;2022-10-16T08:42:07;14.00;99.90
51950;DHT22;37974;53.218;6.640;2022-10-16T08:47:26;14.30;99.90
51950;DHT22;37974;53.218;6.640;2022-10-16T08:50:00;14.40;99.90
51950;DHT22;37974;53.218;6.640;2022-10-16T08:52:32;14.40;99.90
51950;DHT22;37974;53.218;6.640;2022-10-16T08:54:59;14.50;99.90
51950;DHT22;37974;53.218;6.640;2022-10-16T08:57:25;14.60;99.90
51950;DHT22;37974;53.218;6.640;2022-10-16T08:59:53;14.60;99.90
51950;DHT22;37974;53.218;6.640;2022-10-16T09:02:37;14.60;99.90
51950;DHT22;37974;53.218;6.640;2022-10-16T09:05:23;14.70;99.90
51950;DHT22;37974;53.218;6.640;2022-10-16T09:07:58;14.70;99.90
51950;DHT22;37974;53.218;6.640;2022-10-16T09:10:37;14.90;99.90
51950;DHT22;37974;53.218;6.640;2022-10-16T09:21:08;15.10;99.90
51950;DHT22;37974;53.218;6.640;2022-10-16T09:23:36;15.10;99.90
51950;DHT22;37974;53.218;6.640;2022-10-16T09:26:03;15.10;99.90
51950;DHT22;37974;53.218;6.640;2022-10-16T09:28:30;15.00;99.90
51950;DHT22;37974;53.218;6.640;2022-10-16T09:30:56;15.10;99.90
51950;DHT22;37974;53.218;6.640;2022-10-16T09:33:33;15.10;99.90
51950;DHT22;37974;53.218;6.640;2022-10-16T09:36:03;15.20;99.90
51950;DHT22;37974;53.218;6.640;2022-10-16T09:38:32;15.20;99.90
51950;DHT22;37974;53.218;6.640;2022-10-16T09:41:01;15.30;99.90
51950;DHT22;37974;53.218;6.640;2022-10-16T09:43:33;15.40;99.90
51950;DHT22;37974;53.218;6.640;2022-10-16T09:46:04;15.60;99.90
51950;DHT22;37974;53.218;6.640;2022-10-16T09:51:02;15.60;99.90
51950;DHT22;37974;53.218;6.640;2022-10-16T09:53:40;15.60;99.90
51950;DHT22;37974;53.218;6.640;2022-10-16T09:56:06;15.50;99.90
51950;DHT22;37974;53.218;6.640;2022-10-16T09:58:33;15.60;99.90
51950;DHT22;37974;53.218;6.640;2022-10-16T10:00:59;15.50;99.90
51950;DHT22;37974;53.218;6.640;2022-10-16T10:03:39;15.60;99.90
51950;DHT22;37974;53.218;6.640;2022-10-16T10:06:17;15.60;99.90
51950;DHT22;37974;53.218;6.640;2022-10-16T10:08:54;15.70;99.90
51950;DHT22;37974;53.218;6.640;2022-10-16T10:11:41;15.60;99.90
51950;DHT22;37974;53.218;6.640;2022-10-16T10:14:18;15.60;99.90
51950;DHT22;37974;53.218;6.640;2022-10-16T10:16:45;15.60;99.90
51950;DHT22;37974;53.218;6.640;2022-10-16T10:19:18;15.60;99.90
51950;DHT22;37974;53.218;6.640;2022-10-16T10:21:44;15.70;99.90
51950;DHT22;37974;53.218;6.640;2022-10-16T10:24:14;15.80;99.90
51950;DHT22;37974;53.218;6.640;2022-10-16T10:29:24;16.00;99.90
51950;DHT22;37974;53.218;6.640;2022-10-16T10:32:10;16.10;99.90
51950;DHT22;37974;53.218;6.640;2022-10-16T10:35:07;16.10;99.90
51950;DHT22;37974;53.218;6.640;2022-10-16T10:37:59;16.10;99.90
51950;DHT22;37974;53.218;6.640;2022-10-16T10:40:41;16.10;99.90
51950;DHT22;37974;53.218;6.640;2022-10-16T10:45:48;16.20;99.90
51950;DHT22;37974;53.218;6.640;2022-10-16T10:48:38;16.30;99.90
51950;DHT22;37974;53.218;6.640;2022-10-16T10:51:13;16.50;99.90
51950;DHT22;37974;53.218;6.640;2022-10-16T10:54:03;16.60;99.90
51950;DHT22;37974;53.218;6.640;2022-10-16T10:56:57;16.50;99.90
51950;DHT22;37974;53.218;6.640;2022-10-16T11:02:10;16.40;99.90
51950;DHT22;37974;53.218;6.640;2022-10-16T11:07:21;16.30;99.90
51950;DHT22;37974;53.218;6.640;2022-10-16T11:09:55;16.30;99.90
51950;DHT22;37974;53.218;6.640;2022-10-16T11:12:30;16.30;99.90
51950;DHT22;37974;53.218;6.640;2022-10-16T11:15:10;16.30;99.90
51950;DHT22;37974;53.218;6.640;2022-10-16T11:17:42;16.30;99.90
51950;DHT22;37974;53.218;6.640;2022-10-16T11:20:18;16.30;99.90
51950;DHT22;37974;53.218;6.640;2022-10-16T11:22:55;16.30;99.90
51950;DHT22;37974;53.218;6.640;2022-10-16T11:25:31;16.40;99.90
51950;DHT22;37974;53.218;6.640;2022-10-16T11:30:51;16.50;99.90
51950;DHT22;37974;53.218;6.640;2022-10-16T11:35:47;16.60;99.90
51950;DHT22;37974;53.218;6.640;2022-10-16T11:41:32;16.60;99.90
51950;DHT22;37974;53.218;6.640;2022-10-16T11:46:58;16.70;99.90
51950;DHT22;37974;53.218;6.640;2022-10-16T11:49:28;16.70;99.90
51950;DHT22;37974;53.218;6.640;2022-10-16T11:52:06;16.70;99.90
51950;DHT22;37974;53.218;6.640;2022-10-16T11:54:47;16.80;99.90
51950;DHT22;37974;53.218;6.640;2022-10-16T11:57:20;16.80;99.90
51950;DHT22;37974;53.218;6.640;2022-10-16T11:59:52;16.90;99.90
51950;DHT22;37974;53.218;6.640;2022-10-16T12:07:50;16.80;99.90
51950;DHT22;37974;53.218;6.640;2022-10-16T12:10:22;16.80;99.90
51950;DHT22;37974;53.218;6.640;2022-10-16T12:12:48;16.90;99.90
51950;DHT22;37974;53.218;6.640;2022-10-16T12:15:23;16.90;99.90
51950;DHT22;37974;53.218;6.640;2022-10-16T12:17:49;17.00;99.90
51950;DHT22;37974;53.218;6.640;2022-10-16T12:20:21;17.00;99.90
51950;DHT22;37974;53.218;6.640;2022-10-16T12:22:51;16.90;99.90
51950;DHT22;37974;53.218;6.640;2022-10-16T12:30:40;16.30;99.90
51950;DHT22;37974;53.218;6.640;2022-10-16T12:35:51;16.00;99.90
51950;DHT22;37974;53.218;6.640;2022-10-16T12:40:47;15.70;99.90
51950;DHT22;37974;53.218;6.640;2022-10-16T12:45:46;15.70;99.90
51950;DHT22;37974;53.218;6.640;2022-10-16T12:48:21;15.50;99.90
51950;DHT22;37974;53.218;6.640;2022-10-16T12:50:47;15.50;99.90
51950;DHT22;37974;53.218;6.640;2022-10-16T12:56:11;15.50;99.90
51950;DHT22;37974;53.218;6.640;2022-10-16T12:58:58;15.60;99.90
51950;DHT22;37974;53.218;6.640;2022-10-16T13:01:40;15.70;99.90
51950;DHT22;37974;53.218;6.640;2022-10-16T13:15:16;16.10;99.90
51950;DHT22;37974;53.218;6.640;2022-10-16T13:23:12;16.10;99.90
51950;DHT22;37974;53.218;6.640;2022-10-16T13:28:28;16.10;99.90
51950;DHT22;37974;53.218;6.640;2022-10-16T13:30:57;16.10;99.90
51950;DHT22;37974;53.218;6.640;2022-10-16T13:35:57;16.10;99.90
51950;DHT22;37974;53.218;6.640;2022-10-16T13:38:26;16.10;99.90
51950;DHT22;37974;53.218;6.640;2022-10-16T13:41:04;16.10;99.90
51950;DHT22;37974;53.218;6.640;2022-10-16T13:43:37;16.00;99.90
51950;DHT22;37974;53.218;6.640;2022-10-16T13:46:07;15.90;99.90
51950;DHT22;37974;53.218;6.640;2022-10-16T13:48:33;15.80;99.90
51950;DHT22;37974;53.218;6.640;2022-10-16T13:51:03;15.70;99.90
51950;DHT22;37974;53.218;6.640;2022-10-16T13:53:31;15.80;99.90
51950;DHT22;37974;53.218;6.640;2022-10-16T13:55:57;15.70;99.90
51950;DHT22;37974;53.218;6.640;2022-10-16T13:58:25;15.70;99.90
51950;DHT22;37974;53.218;6.640;2022-10-16T14:00:55;15.70;99.90
51950;DHT22;37974;53.218;6.640;2022-10-16T14:03:22;15.90;99.90
51950;DHT22;37974;53.218;6.640;2022-10-16T14:05:52;16.00;99.90
51950;DHT22;37974;53.218;6.640;2022-10-16T14:08:18;16.00;99.90
51950;DHT22;37974;53.218;6.640;2022-10-16T14:10:50;16.00;99.90
51950;DHT22;37974;53.218;6.640;2022-10-16T14:13:22;16.10;99.90
51950;DHT22;37974;53.218;6.640;2022-10-16T14:15:51;16.10;99.90
51950;DHT22;37974;53.218;6.640;2022-10-16T14:18:21;16.00;99.90
51950;DHT22;37974;53.218;6.640;2022-10-16T14:20:49;16.10;99.90
51950;DHT22;37974;53.218;6.640;2022-10-16T14:23:19;16.10;99.90
51950;DHT22;37974;53.218;6.640;2022-10-16T14:25:45;16.10;99.90
51950;DHT22;37974;53.218;6.640;2022-10-16T14:28:20;16.10;99.90
51950;DHT22;37974;53.218;6.640;2022-10-16T14:30:54;16.00;99.90
51950;DHT22;37974;53.218;6.640;2022-10-16T14:33:24;16.00;99.90
51950;DHT22;37974;53.218;6.640;2022-10-16T14:36:03;15.90;99.90
51950;DHT22;37974;53.218;6.640;2022-10-16T14:38:30;15.80;99.90
51950;DHT22;37974;53.218;6.640;2022-10-16T14:40:58;15.70;99.90
51950;DHT22;37974;53.218;6.640;2022-10-16T14:43:35;15.70;99.90
51950;DHT22;37974;53.218;6.640;2022-10-16T14:46:03;15.60;99.90
51950;DHT22;37974;53.218;6.640;2022-10-16T14:48:32;15.50;99.90
51950;DHT22;37974;53.218;6.640;2022-10-16T14:50:57;15.50;99.90
51950;DHT22;37974;53.218;6.640;2022-10-16T14:53:23;15.40;99.90
51950;DHT22;37974;53.218;6.640;2022-10-16T14:55:49;15.30;99.90
51950;DHT22;37974;53.218;6.640;2022-10-16T14:58:18;15.30;99.90
51950;DHT22;37974;53.218;6.640;2022-10-16T15:00:45;15.20;99.90
51950;DHT22;37974;53.218;6.640;2022-10-16T15:03:11;15.10;99.90
51950;DHT22;37974;53.218;6.640;2022-10-16T15:05:37;15.10;99.90
51950;DHT22;37974;53.218;6.640;2022-10-16T15:08:03;15.00;99.90
51950;DHT22;37974;53.218;6.640;2022-10-16T15:10:31;15.00;99.90
51950;DHT22;37974;53.218;6.640;2022-10-16T15:12:58;15.00;99.90
51950;DHT22;37974;53.218;6.640;2022-10-16T15:15:32;15.00;99.90
51950;DHT22;37974;53.218;6.640;2022-10-16T15:17:59;15.00;99.90
51950;DHT22;37974;53.218;6.640;2022-10-16T15:20:29;15.00;99.90
51950;DHT22;37974;53.218;6.640;2022-10-16T15:22:56;15.00;99.90
51950;DHT22;37974;53.218;6.640;2022-10-16T15:25:31;15.00;99.90
51950;DHT22;37974;53.218;6.640;2022-10-16T15:27:59;15.00;99.90
51950;DHT22;37974;53.218;6.640;2022-10-16T15:30:25;14.90;99.90
51950;DHT22;37974;53.218;6.640;2022-10-16T15:32:51;14.90;99.90
51950;DHT22;37974;53.218;6.640;2022-10-16T15:35:18;14.90;99.90
51950;DHT22;37974;53.218;6.640;2022-10-16T15:37:44;14.90;99.90
51950;DHT22;37974;53.218;6.640;2022-10-16T15:40:11;14.80;99.90
51950;DHT22;37974;53.218;6.640;2022-10-16T15:42:37;14.80;99.90
51950;DHT22;37974;53.218;6.640;2022-10-16T15:45:03;14.70;99.90
51950;DHT22;37974;53.218;6.640;2022-10-16T15:47:29;14.70;99.90
51950;DHT22;37974;53.218;6.640;2022-10-16T15:49:55;14.60;99.90
51950;DHT22;37974;53.218;6.640;2022-10-16T15:52:21;14.60;99.90
51950;DHT22;37974;53.218;6.640;2022-10-16T15:54:46;14.50;99.90
51950;DHT22;37974;53.218;6.640;2022-10-16T15:57:12;14.40;99.90
51950;DHT22;37974;53.218;6.640;2022-10-16T15:59:38;14.30;99.90
51950;DHT22;37974;53.218;6.640;2022-10-16T16:02:03;14.20;99.90
51950;DHT22;37974;53.218;6.640;2022-10-16T16:04:30;14.10;99.90
51950;DHT22;37974;53.218;6.640;2022-10-16T16:06:56;14.00;99.90
51950;DHT22;37974;53.218;6.640;2022-10-16T16:09:22;13.90;99.90
51950;DHT22;37974;53.218;6.640;2022-10-16T16:11:48;13.80;99.90
51950;DHT22;37974;53.218;6.640;2022-10-16T16:14:15;13.60;99.90
51950;DHT22;37974;53.218;6.640;2022-10-16T16:16:41;13.50;99.90
51950;DHT22;37974;53.218;6.640;2022-10-16T16:19:07;13.40;99.90
51950;DHT22;37974;53.218;6.640;2022-10-16T16:21:34;13.30;99.90
51950;DHT22;37974;53.218;6.640;2022-10-16T16:23:59;13.20;99.90
51950;DHT22;37974;53.218;6.640;2022-10-16T16:26:27;13.10;99.90
51950;DHT22;37974;53.218;6.640;2022-10-16T16:28:56;13.00;99.90
51950;DHT22;37974;53.218;6.640;2022-10-16T16:31:27;12.90;99.90
51950;DHT22;37974;53.218;6.640;2022-10-16T16:33:53;12.90;99.90
51950;DHT22;37974;53.218;6.640;2022-10-16T16:36:19;12.80;99.90
51950;DHT22;37974;53.218;6.640;2022-10-16T16:38:46;12.70;99.90
51950;DHT22;37974;53.218;6.640;2022-10-16T16:41:17;12.60;99.90
51950;DHT22;37974;53.218;6.640;2022-10-16T16:43:43;12.50;99.90
51950;DHT22;37974;53.218;6.640;2022-10-16T16:46:09;12.40;99.90
51950;DHT22;37974;53.218;6.640;2022-10-16T16:48:36;12.30;99.90
51950;DHT22;37974;53.218;6.640;2022-10-16T16:51:04;12.30;99.90
51950;DHT22;37974;53.218;6.640;2022-10-16T16:53:30;12.20;99.90
51950;DHT22;37974;53.218;6.640;2022-10-16T16:56:01;12.20;99.90
51950;DHT22;37974;53.218;6.640;2022-10-16T16:58:27;12.20;99.90
51950;DHT22;37974;53.218;6.640;2022-10-16T17:00:52;12.10;99.90
51950;DHT22;37974;53.218;6.640;2022-10-16T17:03:18;12.10;99.90
51950;DHT22;37974;53.218;6.640;2022-10-16T17:05:54;12.10;99.90
51950;DHT22;37974;53.218;6.640;2022-10-16T17:08:20;12.10;99.90
51950;DHT22;37974;53.218;6.640;2022-10-16T17:10:45;12.00;99.90